sensor_id;sensor_type;location;lat;lon;timestamp;pressure;altitude;pressure_sealevel;temperature
68012;BMP180;54794;48.348;7.878;2023-05-29T00:01:27;99000.00;;;17.70
68012;BMP180;54794;48.348;7.878;2023-05-29T00:03:58;98997.00;;;18.00
68012;BMP180;54794;48.348;7.878;2023-05-29T00:07:02;98986.00;;;17.60
68012;BMP180;54794;48.348;7.878;2023-05-29T00:09:32;98985.00;;;17.90
68012;BMP180;54794;48.348;7.878;2023-05-29T00:12:13;98985.00;;;18.00
68012;BMP180;54794;48.348;7.878;2023-05-29T00:15:04;98980.00;;;18.10
68012;BMP180;54794;48.348;7.878;2023-05-29T00:17:50;98977.00;;;18.50
68012;BMP180;54794;48.348;7.878;2023-05-29T00:20:34;98976.00;;;18.10
68012;BMP180;54794;48.348;7.878;2023-05-29T00:23:31;98977.00;;;17.70
68012;BMP180;54794;48.348;7.878;2023-05-29T00:26:01;98975.00;;;18.10
68012;BMP180;54794;48.348;7.878;2023-05-29T00:29:04;98976.00;;;18.00
68012;BMP180;54794;48.348;7.878;2023-05-29T00:31:40;98969.00;;;18.00
68012;BMP180;54794;48.348;7.878;2023-05-29T00:34:17;98966.00;;;17.80
68012;BMP180;54794;48.348;7.878;2023-05-29T00:37:14;98965.00;;;17.70
68012;BMP180;54794;48.348;7.878;2023-05-29T00:42:59;98965.00;;;17.40
68012;BMP180;54794;48.348;7.878;2023-05-29T00:45:35;98972.00;;;17.30
68012;BMP180;54794;48.348;7.878;2023-05-29T00:48:32;98976.00;;;17.10
68012;BMP180;54794;48.348;7.878;2023-05-29T00:55:41;98985.00;;;17.00
68012;BMP180;54794;48.348;7.878;2023-05-29T01:07:12;98979.00;;;17.40
68012;BMP180;54794;48.348;7.878;2023-05-29T01:10:19;98980.00;;;17.10
68012;BMP180;54794;48.348;7.878;2023-05-29T01:29:47;98996.00;;;16.40
68012;BMP180;54794;48.348;7.878;2023-05-29T01:41:48;98986.00;;;15.50
68012;BMP180;54794;48.348;7.878;2023-05-29T01:45:37;98994.00;;;15.70
68012;BMP180;54794;48.348;7.878;2023-05-29T02:09:30;99000.00;;;15.70
68012;BMP180;54794;48.348;7.878;2023-05-29T02:25:40;98988.00;;;15.40
68012;BMP180;54794;48.348;7.878;2023-05-29T02:33:19;98992.00;;;15.90
68012;BMP180;54794;48.348;7.878;2023-05-29T02:48:04;98982.00;;;15.30
68012;BMP180;54794;48.348;7.878;2023-05-29T02:51:20;98989.00;;;15.40
68012;BMP180;54794;48.348;7.878;2023-05-29T02:54:24;98984.00;;;15.50
68012;BMP180;54794;48.348;7.878;2023-05-29T02:57:05;98978.00;;;15.20
68012;BMP180;54794;48.348;7.878;2023-05-29T03:00:01;98982.00;;;15.50
68012;BMP180;54794;48.348;7.878;2023-05-29T03:02:49;98988.00;;;15.10
68012;BMP180;54794;48.348;7.878;2023-05-29T03:05:30;98981.00;;;15.50
68012;BMP180;54794;48.348;7.878;2023-05-29T03:08:27;98997.00;;;15.20
68012;BMP180;54794;48.348;7.878;2023-05-29T03:14:43;98994.00;;;15.60
68012;BMP180;54794;48.348;7.878;2023-05-29T03:17:24;98994.00;;;15.60
68012;BMP180;54794;48.348;7.878;2023-05-29T03:23:58;98984.00;;;15.70
68012;BMP180;54794;48.348;7.878;2023-05-29T03:26:44;98988.00;;;15.40
68012;BMP180;54794;48.348;7.878;2023-05-29T03:29:37;98988.00;;;15.50
68012;BMP180;54794;48.348;7.878;2023-05-29T03:32:17;98995.00;;;15.40
68012;BMP180;54794;48.348;7.878;2023-05-29T03:35:34;99005.00;;;15.50
68012;BMP180;54794;48.348;7.878;2023-05-29T03:38:34;99004.00;;;15.40
68012;BMP180;54794;48.348;7.878;2023-05-29T03:41:05;99003.00;;;15.40
68012;BMP180;54794;48.348;7.878;2023-05-29T03:44:14;99002.00;;;15.20
68012;BMP180;54794;48.348;7.878;2023-05-29T03:47:09;99001.00;;;15.20
68012;BMP180;54794;48.348;7.878;2023-05-29T03:50:18;99005.00;;;15.40
68012;BMP180;54794;48.348;7.878;2023-05-29T03:53:17;99004.00;;;15.20
68012;BMP180;54794;48.348;7.878;2023-05-29T03:55:47;99016.00;;;15.10
68012;BMP180;54794;48.348;7.878;2023-05-29T03:58:19;99014.00;;;15.40
68012;BMP180;54794;48.348;7.878;2023-05-29T04:01:16;99020.00;;;15.40
68012;BMP180;54794;48.348;7.878;2023-05-29T04:04:17;99020.00;;;14.90
68012;BMP180;54794;48.348;7.878;2023-05-29T04:07:33;99029.00;;;15.20
68012;BMP180;54794;48.348;7.878;2023-05-29T04:10:07;99027.00;;;15.20
68012;BMP180;54794;48.348;7.878;2023-05-29T04:16:59;99029.00;;;15.20
68012;BMP180;54794;48.348;7.878;2023-05-29T04:20:16;99036.00;;;15.10
68012;BMP180;54794;48.348;7.878;2023-05-29T04:23:04;99026.00;;;15.30
68012;BMP180;54794;48.348;7.878;2023-05-29T04:25:42;99027.00;;;15.30
68012;BMP180;54794;48.348;7.878;2023-05-29T04:32:41;99049.00;;;15.30
68012;BMP180;54794;48.348;7.878;2023-05-29T04:36:06;99048.00;;;15.10
68012;BMP180;54794;48.348;7.878;2023-05-29T04:39:46;99062.00;;;15.30
68012;BMP180;54794;48.348;7.878;2023-05-29T04:42:42;99057.00;;;15.50
68012;BMP180;54794;48.348;7.878;2023-05-29T04:45:36;99059.00;;;15.60
68012;BMP180;54794;48.348;7.878;2023-05-29T04:48:11;99068.00;;;15.60
68012;BMP180;54794;48.348;7.878;2023-05-29T04:51:21;99080.00;;;15.50
68012;BMP180;54794;48.348;7.878;2023-05-29T04:58:04;99086.00;;;15.50
68012;BMP180;54794;48.348;7.878;2023-05-29T05:01:49;99080.00;;;15.60
68012;BMP180;54794;48.348;7.878;2023-05-29T05:05:23;99086.00;;;15.80
68012;BMP180;54794;48.348;7.878;2023-05-29T05:08:37;99099.00;;;16.00
68012;BMP180;54794;48.348;7.878;2023-05-29T05:24:02;99105.00;;;15.60
68012;BMP180;54794;48.348;7.878;2023-05-29T05:27:13;99100.00;;;15.70
68012;BMP180;54794;48.348;7.878;2023-05-29T05:35:01;99104.00;;;16.00
68012;BMP180;54794;48.348;7.878;2023-05-29T05:49:45;99099.00;;;16.40
68012;BMP180;54794;48.348;7.878;2023-05-29T05:53:17;99114.00;;;16.50
68012;BMP180;54794;48.348;7.878;2023-05-29T05:57:21;99106.00;;;16.20
68012;BMP180;54794;48.348;7.878;2023-05-29T06:09:02;99113.00;;;17.00
68012;BMP180;54794;48.348;7.878;2023-05-29T06:12:43;99123.00;;;16.80
68012;BMP180;54794;48.348;7.878;2023-05-29T06:16:45;99117.00;;;17.10
68012;BMP180;54794;48.348;7.878;2023-05-29T06:21:02;99117.00;;;17.10
68012;BMP180;54794;48.348;7.878;2023-05-29T06:27:24;99117.00;;;17.50
68012;BMP180;54794;48.348;7.878;2023-05-29T06:42:29;99135.00;;;18.20
68012;BMP180;54794;48.348;7.878;2023-05-29T06:50:29;99138.00;;;18.40
68012;BMP180;54794;48.348;7.878;2023-05-29T06:53:30;99143.00;;;18.30
68012;BMP180;54794;48.348;7.878;2023-05-29T06:56:35;99139.00;;;18.50
68012;BMP180;54794;48.348;7.878;2023-05-29T07:03:33;99142.00;;;18.60
68012;BMP180;54794;48.348;7.878;2023-05-29T07:06:53;99150.00;;;18.60
68012;BMP180;54794;48.348;7.878;2023-05-29T07:09:33;99149.00;;;19.10
68012;BMP180;54794;48.348;7.878;2023-05-29T07:12:16;99147.00;;;18.80
68012;BMP180;54794;48.348;7.878;2023-05-29T07:14:57;99145.00;;;19.00
68012;BMP180;54794;48.348;7.878;2023-05-29T07:18:58;99157.00;;;19.40
68012;BMP180;54794;48.348;7.878;2023-05-29T07:26:05;99151.00;;;19.70
68012;BMP180;54794;48.348;7.878;2023-05-29T07:29:27;99143.00;;;19.90
68012;BMP180;54794;48.348;7.878;2023-05-29T07:32:51;99140.00;;;20.00
68012;BMP180;54794;48.348;7.878;2023-05-29T07:39:17;99151.00;;;20.50
68012;BMP180;54794;48.348;7.878;2023-05-29T07:42:02;99142.00;;;20.50
68012;BMP180;54794;48.348;7.878;2023-05-29T07:44:32;99159.00;;;20.30
68012;BMP180;54794;48.348;7.878;2023-05-29T07:47:17;99154.00;;;20.20
68012;BMP180;54794;48.348;7.878;2023-05-29T07:50:16;99145.00;;;20.80
68012;BMP180;54794;48.348;7.878;2023-05-29T07:53:21;99152.00;;;21.00
68012;BMP180;54794;48.348;7.878;2023-05-29T07:56:37;99149.00;;;21.20
68012;BMP180;54794;48.348;7.878;2023-05-29T07:59:24;99155.00;;;21.10
68012;BMP180;54794;48.348;7.878;2023-05-29T08:01:57;99150.00;;;21.20
68012;BMP180;54794;48.348;7.878;2023-05-29T08:04:38;99149.00;;;21.40
68012;BMP180;54794;48.348;7.878;2023-05-29T08:07:08;99153.00;;;21.80
68012;BMP180;54794;48.348;7.878;2023-05-29T08:09:44;99151.00;;;21.60
68012;BMP180;54794;48.348;7.878;2023-05-29T08:12:20;99147.00;;;21.80
68012;BMP180;54794;48.348;7.878;2023-05-29T08:15:02;99149.00;;;22.00
68012;BMP180;54794;48.348;7.878;2023-05-29T08:17:43;99135.00;;;22.00
68012;BMP180;54794;48.348;7.878;2023-05-29T08:20:21;99132.00;;;21.90
68012;BMP180;54794;48.348;7.878;2023-05-29T08:24:01;99138.00;;;22.20
68012;BMP180;54794;48.348;7.878;2023-05-29T08:26:58;99139.00;;;22.60
68012;BMP180;54794;48.348;7.878;2023-05-29T08:29:50;99142.00;;;22.60
68012;BMP180;54794;48.348;7.878;2023-05-29T08:33:05;99142.00;;;23.10
68012;BMP180;54794;48.348;7.878;2023-05-29T08:39:28;99131.00;;;23.10
68012;BMP180;54794;48.348;7.878;2023-05-29T08:43:29;99136.00;;;23.40
68012;BMP180;54794;48.348;7.878;2023-05-29T08:46:19;99133.00;;;23.20
68012;BMP180;54794;48.348;7.878;2023-05-29T08:49:05;99134.00;;;23.40
68012;BMP180;54794;48.348;7.878;2023-05-29T08:51:47;99137.00;;;23.90
68012;BMP180;54794;48.348;7.878;2023-05-29T08:54:14;99135.00;;;23.80
68012;BMP180;54794;48.348;7.878;2023-05-29T09:01:35;99132.00;;;23.90
68012;BMP180;54794;48.348;7.878;2023-05-29T09:16:50;99133.00;;;24.70
68012;BMP180;54794;48.348;7.878;2023-05-29T09:25:42;99141.00;;;24.50
68012;BMP180;54794;48.348;7.878;2023-05-29T09:29:06;99138.00;;;24.90
68012;BMP180;54794;48.348;7.878;2023-05-29T09:35:49;99135.00;;;25.30
68012;BMP180;54794;48.348;7.878;2023-05-29T09:38:54;99127.00;;;25.00
68012;BMP180;54794;48.348;7.878;2023-05-29T09:41:44;99134.00;;;25.40
68012;BMP180;54794;48.348;7.878;2023-05-29T09:44:45;99136.00;;;25.70
68012;BMP180;54794;48.348;7.878;2023-05-29T10:12:44;99127.00;;;26.70
68012;BMP180;54794;48.348;7.878;2023-05-29T10:15:59;99119.00;;;26.90
68012;BMP180;54794;48.348;7.878;2023-05-29T10:18:44;99123.00;;;26.70
68012;BMP180;54794;48.348;7.878;2023-05-29T10:21:45;99116.00;;;26.70
68012;BMP180;54794;48.348;7.878;2023-05-29T10:24:31;99112.00;;;27.00
68012;BMP180;54794;48.348;7.878;2023-05-29T10:27:05;99117.00;;;26.70
68012;BMP180;54794;48.348;7.878;2023-05-29T10:50:23;99087.00;;;27.80
68012;BMP180;54794;48.348;7.878;2023-05-29T10:53:59;99087.00;;;27.50
68012;BMP180;54794;48.348;7.878;2023-05-29T11:02:04;99084.00;;;27.80
68012;BMP180;54794;48.348;7.878;2023-05-29T11:09:44;99085.00;;;28.20
68012;BMP180;54794;48.348;7.878;2023-05-29T11:20:16;99083.00;;;28.20
68012;BMP180;54794;48.348;7.878;2023-05-29T11:23:07;99081.00;;;28.50
68012;BMP180;54794;48.348;7.878;2023-05-29T11:26:33;99088.00;;;28.40
68012;BMP180;54794;48.348;7.878;2023-05-29T11:30:06;99076.00;;;28.60
68012;BMP180;54794;48.348;7.878;2023-05-29T11:33:57;99071.00;;;28.80
68012;BMP180;54794;48.348;7.878;2023-05-29T11:37:13;99067.00;;;29.40
68012;BMP180;54794;48.348;7.878;2023-05-29T11:40:50;99060.00;;;29.20
68012;BMP180;54794;48.348;7.878;2023-05-29T11:44:13;99048.00;;;29.20
68012;BMP180;54794;48.348;7.878;2023-05-29T11:51:15;99052.00;;;29.80
68012;BMP180;54794;48.348;7.878;2023-05-29T11:54:34;99064.00;;;29.90
68012;BMP180;54794;48.348;7.878;2023-05-29T11:58:47;99053.00;;;29.40
68012;BMP180;54794;48.348;7.878;2023-05-29T12:01:43;99044.00;;;30.00
68012;BMP180;54794;48.348;7.878;2023-05-29T12:05:02;99049.00;;;30.10
68012;BMP180;54794;48.348;7.878;2023-05-29T12:17:26;99051.00;;;30.20
68012;BMP180;54794;48.348;7.878;2023-05-29T12:32:18;99044.00;;;30.80
68012;BMP180;54794;48.348;7.878;2023-05-29T12:35:27;99042.00;;;31.00
68012;BMP180;54794;48.348;7.878;2023-05-29T12:38:52;99037.00;;;31.00
68012;BMP180;54794;48.348;7.878;2023-05-29T12:51:54;99038.00;;;31.30
68012;BMP180;54794;48.348;7.878;2023-05-29T12:59:05;99037.00;;;31.50
68012;BMP180;54794;48.348;7.878;2023-05-29T13:01:32;99029.00;;;31.50
68012;BMP180;54794;48.348;7.878;2023-05-29T13:04:44;99033.00;;;31.30
68012;BMP180;54794;48.348;7.878;2023-05-29T13:07:25;99030.00;;;30.90
68012;BMP180;54794;48.348;7.878;2023-05-29T13:10:32;99036.00;;;31.20
68012;BMP180;54794;48.348;7.878;2023-05-29T13:17:06;99030.00;;;30.90
68012;BMP180;54794;48.348;7.878;2023-05-29T13:19:50;99027.00;;;31.10
68012;BMP180;54794;48.348;7.878;2023-05-29T13:22:34;99031.00;;;31.60
68012;BMP180;54794;48.348;7.878;2023-05-29T13:26:06;99018.00;;;30.80
68012;BMP180;54794;48.348;7.878;2023-05-29T13:45:30;99017.00;;;31.00
68012;BMP180;54794;48.348;7.878;2023-05-29T14:06:01;98998.00;;;30.80
68012;BMP180;54794;48.348;7.878;2023-05-29T14:09:05;99013.00;;;30.50
68012;BMP180;54794;48.348;7.878;2023-05-29T14:12:25;99011.00;;;30.40
68012;BMP180;54794;48.348;7.878;2023-05-29T14:15:27;99012.00;;;30.40
68012;BMP180;54794;48.348;7.878;2023-05-29T14:22:12;98990.00;;;30.50
68012;BMP180;54794;48.348;7.878;2023-05-29T14:36:41;99001.00;;;30.90
68012;BMP180;54794;48.348;7.878;2023-05-29T14:39:11;98997.00;;;30.90
68012;BMP180;54794;48.348;7.878;2023-05-29T14:41:45;99004.00;;;31.40
68012;BMP180;54794;48.348;7.878;2023-05-29T14:44:27;99004.00;;;30.60
68012;BMP180;54794;48.348;7.878;2023-05-29T14:47:05;99002.00;;;30.50
68012;BMP180;54794;48.348;7.878;2023-05-29T14:49:33;99008.00;;;30.70
68012;BMP180;54794;48.348;7.878;2023-05-29T14:52:09;99009.00;;;30.30
68012;BMP180;54794;48.348;7.878;2023-05-29T14:54:47;99017.00;;;31.00
68012;BMP180;54794;48.348;7.878;2023-05-29T14:57:21;99011.00;;;30.40
68012;BMP180;54794;48.348;7.878;2023-05-29T14:59:49;98997.00;;;30.40
68012;BMP180;54794;48.348;7.878;2023-05-29T15:02:31;99011.00;;;30.40
68012;BMP180;54794;48.348;7.878;2023-05-29T15:05:15;99006.00;;;30.80
68012;BMP180;54794;48.348;7.878;2023-05-29T15:08:33;99005.00;;;30.70
68012;BMP180;54794;48.348;7.878;2023-05-29T15:12:08;99011.00;;;30.50
68012;BMP180;54794;48.348;7.878;2023-05-29T15:14:43;98996.00;;;30.20
68012;BMP180;54794;48.348;7.878;2023-05-29T15:21:38;98997.00;;;30.30
68012;BMP180;54794;48.348;7.878;2023-05-29T15:28:27;99003.00;;;30.60
68012;BMP180;54794;48.348;7.878;2023-05-29T15:31:15;99005.00;;;30.60
68012;BMP180;54794;48.348;7.878;2023-05-29T15:34:10;99000.00;;;30.20
68012;BMP180;54794;48.348;7.878;2023-05-29T15:37:02;98999.00;;;30.40
68012;BMP180;54794;48.348;7.878;2023-05-29T15:39:37;98997.00;;;29.50
68012;BMP180;54794;48.348;7.878;2023-05-29T15:43:00;98998.00;;;29.90
68012;BMP180;54794;48.348;7.878;2023-05-29T15:46:06;98997.00;;;30.00
68012;BMP180;54794;48.348;7.878;2023-05-29T15:48:56;98992.00;;;29.80
68012;BMP180;54794;48.348;7.878;2023-05-29T15:51:31;98998.00;;;30.00
68012;BMP180;54794;48.348;7.878;2023-05-29T15:54:08;98986.00;;;29.90
68012;BMP180;54794;48.348;7.878;2023-05-29T15:56:52;98997.00;;;30.30
68012;BMP180;54794;48.348;7.878;2023-05-29T15:59:38;98991.00;;;30.30
68012;BMP180;54794;48.348;7.878;2023-05-29T16:02:27;98993.00;;;30.20
68012;BMP180;54794;48.348;7.878;2023-05-29T16:05:21;98990.00;;;30.20
68012;BMP180;54794;48.348;7.878;2023-05-29T16:08:13;98982.00;;;29.90
68012;BMP180;54794;48.348;7.878;2023-05-29T16:10:42;98994.00;;;29.60
68012;BMP180;54794;48.348;7.878;2023-05-29T16:13:16;98992.00;;;29.50
68012;BMP180;54794;48.348;7.878;2023-05-29T16:16:14;98980.00;;;29.50
68012;BMP180;54794;48.348;7.878;2023-05-29T16:19:04;98982.00;;;29.00
68012;BMP180;54794;48.348;7.878;2023-05-29T16:21:52;98978.00;;;29.30
68012;BMP180;54794;48.348;7.878;2023-05-29T16:24:30;98972.00;;;29.30
68012;BMP180;54794;48.348;7.878;2023-05-29T16:27:03;98977.00;;;29.00
68012;BMP180;54794;48.348;7.878;2023-05-29T16:29:45;98976.00;;;29.30
68012;BMP180;54794;48.348;7.878;2023-05-29T16:32:29;98978.00;;;29.00
68012;BMP180;54794;48.348;7.878;2023-05-29T16:35:06;98983.00;;;29.10
68012;BMP180;54794;48.348;7.878;2023-05-29T16:37:45;98977.00;;;28.90
68012;BMP180;54794;48.348;7.878;2023-05-29T16:40:17;98986.00;;;28.80
68012;BMP180;54794;48.348;7.878;2023-05-29T16:42:59;98982.00;;;28.60
68012;BMP180;54794;48.348;7.878;2023-05-29T16:45:44;98986.00;;;28.40
68012;BMP180;54794;48.348;7.878;2023-05-29T16:48:31;98979.00;;;28.80
68012;BMP180;54794;48.348;7.878;2023-05-29T16:51:26;98991.00;;;29.00
68012;BMP180;54794;48.348;7.878;2023-05-29T16:58:03;99004.00;;;28.40
68012;BMP180;54794;48.348;7.878;2023-05-29T17:01:54;98999.00;;;28.20
68012;BMP180;54794;48.348;7.878;2023-05-29T17:05:30;98988.00;;;27.80
68012;BMP180;54794;48.348;7.878;2023-05-29T17:09:12;98994.00;;;27.70
68012;BMP180;54794;48.348;7.878;2023-05-29T17:12:39;98997.00;;;27.30
68012;BMP180;54794;48.348;7.878;2023-05-29T17:23:05;99000.00;;;26.80
68012;BMP180;54794;48.348;7.878;2023-05-29T17:25:52;98993.00;;;26.80
68012;BMP180;54794;48.348;7.878;2023-05-29T17:32:27;99006.00;;;27.10
68012;BMP180;54794;48.348;7.878;2023-05-29T17:38:02;99005.00;;;26.80
68012;BMP180;54794;48.348;7.878;2023-05-29T17:40:39;99009.00;;;26.80
68012;BMP180;54794;48.348;7.878;2023-05-29T17:43:22;99008.00;;;26.50
68012;BMP180;54794;48.348;7.878;2023-05-29T17:46:02;98999.00;;;26.50
68012;BMP180;54794;48.348;7.878;2023-05-29T17:48:57;99011.00;;;26.30
68012;BMP180;54794;48.348;7.878;2023-05-29T17:55:44;99009.00;;;26.30
68012;BMP180;54794;48.348;7.878;2023-05-29T17:58:50;99010.00;;;25.80
68012;BMP180;54794;48.348;7.878;2023-05-29T18:01:40;99025.00;;;25.90
68012;BMP180;54794;48.348;7.878;2023-05-29T18:04:13;99022.00;;;26.00
68012;BMP180;54794;48.348;7.878;2023-05-29T18:07:17;99026.00;;;25.80
68012;BMP180;54794;48.348;7.878;2023-05-29T18:10:08;99029.00;;;25.40
68012;BMP180;54794;48.348;7.878;2023-05-29T18:13:00;99022.00;;;25.70
68012;BMP180;54794;48.348;7.878;2023-05-29T18:15:31;99026.00;;;25.50
68012;BMP180;54794;48.348;7.878;2023-05-29T18:18:35;99029.00;;;25.50
68012;BMP180;54794;48.348;7.878;2023-05-29T18:22:08;99034.00;;;25.70
68012;BMP180;54794;48.348;7.878;2023-05-29T18:25:46;99040.00;;;25.40
68012;BMP180;54794;48.348;7.878;2023-05-29T18:29:22;99037.00;;;25.70
68012;BMP180;54794;48.348;7.878;2023-05-29T18:36:04;99034.00;;;25.20
68012;BMP180;54794;48.348;7.878;2023-05-29T18:38:51;99037.00;;;25.00
68012;BMP180;54794;48.348;7.878;2023-05-29T18:50:02;99054.00;;;24.90
68012;BMP180;54794;48.348;7.878;2023-05-29T18:56:55;99063.00;;;24.60
68012;BMP180;54794;48.348;7.878;2023-05-29T19:04:49;99066.00;;;24.30
68012;BMP180;54794;48.348;7.878;2023-05-29T19:16:37;99058.00;;;24.00
68012;BMP180;54794;48.348;7.878;2023-05-29T19:24:05;99066.00;;;23.90
68012;BMP180;54794;48.348;7.878;2023-05-29T19:31:41;99082.00;;;23.70
68012;BMP180;54794;48.348;7.878;2023-05-29T19:34:40;99083.00;;;24.00
68012;BMP180;54794;48.348;7.878;2023-05-29T19:37:26;99086.00;;;23.40
68012;BMP180;54794;48.348;7.878;2023-05-29T19:40:11;99083.00;;;23.50
68012;BMP180;54794;48.348;7.878;2023-05-29T19:43:22;99100.00;;;23.40
68012;BMP180;54794;48.348;7.878;2023-05-29T19:46:48;99105.00;;;23.20
68012;BMP180;54794;48.348;7.878;2023-05-29T19:49:48;99097.00;;;23.10
68012;BMP180;54794;48.348;7.878;2023-05-29T19:53:08;99111.00;;;23.40
68012;BMP180;54794;48.348;7.878;2023-05-29T19:55:53;99123.00;;;23.30
68012;BMP180;54794;48.348;7.878;2023-05-29T19:58:45;99128.00;;;23.40
68012;BMP180;54794;48.348;7.878;2023-05-29T20:02:28;99133.00;;;23.50
68012;BMP180;54794;48.348;7.878;2023-05-29T20:12:46;99137.00;;;22.70
68012;BMP180;54794;48.348;7.878;2023-05-29T20:19:20;99144.00;;;23.00
68012;BMP180;54794;48.348;7.878;2023-05-29T20:22:45;99151.00;;;23.00
68012;BMP180;54794;48.348;7.878;2023-05-29T20:26:07;99152.00;;;22.50
68012;BMP180;54794;48.348;7.878;2023-05-29T20:29:15;99155.00;;;22.60
68012;BMP180;54794;48.348;7.878;2023-05-29T20:32:36;99167.00;;;22.30
68012;BMP180;54794;48.348;7.878;2023-05-29T20:36:07;99163.00;;;22.50
68012;BMP180;54794;48.348;7.878;2023-05-29T20:38:52;99170.00;;;22.50
68012;BMP180;54794;48.348;7.878;2023-05-29T20:41:45;99160.00;;;22.40
68012;BMP180;54794;48.348;7.878;2023-05-29T20:44:28;99164.00;;;22.90
68012;BMP180;54794;48.348;7.878;2023-05-29T20:47:38;99163.00;;;22.80
68012;BMP180;54794;48.348;7.878;2023-05-29T20:50:18;99163.00;;;22.70
68012;BMP180;54794;48.348;7.878;2023-05-29T20:57:45;99183.00;;;22.20
68012;BMP180;54794;48.348;7.878;2023-05-29T21:01:18;99183.00;;;21.90
68012;BMP180;54794;48.348;7.878;2023-05-29T21:04:25;99189.00;;;21.90
68012;BMP180;54794;48.348;7.878;2023-05-29T21:07:29;99192.00;;;21.50
68012;BMP180;54794;48.348;7.878;2023-05-29T21:11:27;99183.00;;;21.80
68012;BMP180;54794;48.348;7.878;2023-05-29T21:14:22;99183.00;;;21.90
68012;BMP180;54794;48.348;7.878;2023-05-29T21:17:41;99179.00;;;21.70
68012;BMP180;54794;48.348;7.878;2023-05-29T21:24:35;99185.00;;;21.70
68012;BMP180;54794;48.348;7.878;2023-05-29T21:28:19;99194.00;;;21.30
68012;BMP180;54794;48.348;7.878;2023-05-29T21:35:36;99192.00;;;21.00
68012;BMP180;54794;48.348;7.878;2023-05-29T21:38:28;99202.00;;;21.20
68012;BMP180;54794;48.348;7.878;2023-05-29T21:41:18;99196.00;;;21.00
68012;BMP180;54794;48.348;7.878;2023-05-29T21:44:22;99209.00;;;21.10
68012;BMP180;54794;48.348;7.878;2023-05-29T21:47:45;99203.00;;;21.20
68012;BMP180;54794;48.348;7.878;2023-05-29T21:51:00;99200.00;;;20.90
68012;BMP180;54794;48.348;7.878;2023-05-29T21:57:39;99209.00;;;20.50
68012;BMP180;54794;48.348;7.878;2023-05-29T22:08:55;99204.00;;;20.70
68012;BMP180;54794;48.348;7.878;2023-05-29T22:12:26;99197.00;;;20.80
68012;BMP180;54794;48.348;7.878;2023-05-29T22:15:42;99205.00;;;20.60
68012;BMP180;54794;48.348;7.878;2023-05-29T22:19:48;99206.00;;;20.60
68012;BMP180;54794;48.348;7.878;2023-05-29T22:23:14;99208.00;;;20.30
68012;BMP180;54794;48.348;7.878;2023-05-29T22:29:44;99210.00;;;20.50
68012;BMP180;54794;48.348;7.878;2023-05-29T22:36:18;99207.00;;;20.00
68012;BMP180;54794;48.348;7.878;2023-05-29T22:39:58;99217.00;;;19.80
68012;BMP180;54794;48.348;7.878;2023-05-29T22:43:20;99205.00;;;20.00
68012;BMP180;54794;48.348;7.878;2023-05-29T22:46:56;99219.00;;;20.10
68012;BMP180;54794;48.348;7.878;2023-05-29T22:52:57;99219.00;;;19.70
68012;BMP180;54794;48.348;7.878;2023-05-29T22:55:36;99219.00;;;20.00
68012;BMP180;54794;48.348;7.878;2023-05-29T22:58:08;99214.00;;;19.90
68012;BMP180;54794;48.348;7.878;2023-05-29T23:00:49;99221.00;;;19.60
68012;BMP180;54794;48.348;7.878;2023-05-29T23:03:27;99216.00;;;19.80
68012;BMP180;54794;48.348;7.878;2023-05-29T23:06:10;99212.00;;;20.10
68012;BMP180;54794;48.348;7.878;2023-05-29T23:08:58;99228.00;;;20.00
68012;BMP180;54794;48.348;7.878;2023-05-29T23:11:36;99216.00;;;20.10
68012;BMP180;54794;48.348;7.878;2023-05-29T23:14:10;99219.00;;;20.00
68012;BMP180;54794;48.348;7.878;2023-05-29T23:16:51;99225.00;;;19.70
68012;BMP180;54794;48.348;7.878;2023-05-29T23:19:34;99228.00;;;19.90
68012;BMP180;54794;48.348;7.878;2023-05-29T23:22:16;99216.00;;;19.80
68012;BMP180;54794;48.348;7.878;2023-05-29T23:25:09;99222.00;;;19.80
68012;BMP180;54794;48.348;7.878;2023-05-29T23:27:56;99210.00;;;19.60
68012;BMP180;54794;48.348;7.878;2023-05-29T23:30:30;99217.00;;;19.80
68012;BMP180;54794;48.348;7.878;2023-05-29T23:33:07;99227.00;;;19.30
68012;BMP180;54794;48.348;7.878;2023-05-29T23:35:45;99214.00;;;19.50
68012;BMP180;54794;48.348;7.878;2023-05-29T23:38:15;99225.00;;;18.90
68012;BMP180;54794;48.348;7.878;2023-05-29T23:41:08;99220.00;;;19.40
68012;BMP180;54794;48.348;7.878;2023-05-29T23:43:48;99225.00;;;19.60
68012;BMP180;54794;48.348;7.878;2023-05-29T23:46:34;99213.00;;;19.00
68012;BMP180;54794;48.348;7.878;2023-05-29T23:49:23;99219.00;;;19.10
68012;BMP180;54794;48.348;7.878;2023-05-29T23:52:00;99213.00;;;19.20
68012;BMP180;54794;48.348;7.878;2023-05-29T23:54:55;99213.00;;;19.30
68012;BMP180;54794;48.348;7.878;2023-05-29T23:57:30;99214.00;;;18.90
